Terminal Aerodrome Forecast
Issued by NWS Charleston, WV

Current Version | Previous Version | Graphics & Text | Print | Product List | Glossary On
Versions: 1 2 3 4 5 6 7 8 9 10 11 12 13 14 15 16 17 18 19 20 21 22 23 24 25
000
FTUS41 KRLX 282300 RRA
TAFPKB
TAF
KPKB 282345Z 2900/2924 00000KT 6SM BR OVC015
      TEMPO 2901/2905 4SM BR BKN025
     FM290500 00000KT 4SM BR BKN025
     FM290700 00000KT 4SM BR BKN035
     FM291200 00000KT 4SM BR SCT040
     FM291500 01004KT P6SM BKN040
     FM292100 01004KT P6SM SCT040=

USA.gov is the U.S. government's official web portal to all federal, state and local government web resources and services.